createdAt,value
2018-08-19T00:01:02.140Z,9.00
2018-08-19T00:03:32.894Z,9.80
2018-08-19T00:06:03.268Z,9.40
2018-08-19T00:08:34.531Z,8.88
2018-08-19T00:11:09.932Z,9.63
2018-08-19T00:13:41.036Z,10.00
2018-08-19T00:16:12.156Z,9.60
2018-08-19T00:18:43.412Z,9.40
2018-08-19T00:21:14.127Z,9.70
2018-08-19T00:23:49.420Z,9.75
2018-08-19T00:26:19.801Z,9.98
2018-08-19T00:28:50.600Z,9.48
2018-08-19T00:31:21.056Z,9.60
2018-08-19T00:33:51.531Z,9.83
2018-08-19T00:36:32.512Z,9.68
2018-08-19T00:39:03.077Z,8.65
2018-08-19T00:41:33.571Z,9.68
2018-08-19T00:44:04.261Z,9.55
2018-08-19T00:46:34.733Z,9.03
2018-08-19T00:49:05.243Z,9.50
2018-08-19T00:51:36.820Z,9.25
2018-08-19T00:54:07.334Z,8.48
2018-08-19T00:56:38.059Z,9.30
2018-08-19T00:59:11.203Z,8.95
2018-08-19T01:01:41.665Z,9.03
2018-08-19T01:04:12.547Z,9.13
2018-08-19T01:06:48.305Z,8.43
2018-08-19T01:09:18.977Z,8.93
2018-08-19T01:11:49.743Z,8.38
2018-08-19T01:14:20.809Z,8.75
2018-08-19T01:16:51.473Z,9.53
2018-08-19T01:19:22.011Z,8.80
2018-08-19T01:21:54.147Z,8.48
2018-08-19T01:24:24.946Z,9.13
2018-08-19T01:26:55.817Z,8.55
2018-08-19T01:29:41.112Z,8.95
2018-08-19T01:32:12.203Z,9.70
2018-08-19T01:34:46.131Z,9.83
2018-08-19T01:37:16.563Z,9.85
2018-08-19T01:39:47.936Z,9.18
2018-08-19T01:42:18.351Z,9.83
2018-08-19T01:44:48.791Z,9.55
2018-08-19T01:47:19.303Z,9.70
2018-08-19T01:49:49.753Z,10.93
2018-08-19T01:52:20.131Z,9.65
2018-08-19T01:54:50.653Z,10.13
2018-08-19T01:57:21.195Z,10.68
2018-08-19T01:59:52.601Z,10.23
2018-08-19T02:02:23.095Z,10.18
2018-08-19T02:04:56.883Z,10.10
2018-08-19T02:07:27.681Z,9.88
2018-08-19T02:10:03.957Z,10.85
2018-08-19T02:12:39.411Z,10.20
2018-08-19T02:15:11.189Z,9.88
2018-08-19T02:18:14.425Z,10.40
2018-08-19T02:20:44.950Z,10.53
2018-08-19T02:23:15.506Z,10.32
2018-08-19T02:25:48.099Z,11.00
2018-08-19T02:28:22.369Z,11.15
2018-08-19T02:31:02.769Z,10.32
2018-08-19T02:33:36.224Z,11.48
2018-08-19T02:36:08.052Z,11.12
2018-08-19T02:38:39.093Z,11.05
2018-08-19T02:41:09.632Z,11.40
2018-08-19T02:43:50.507Z,10.78
2018-08-19T02:46:21.075Z,11.73
2018-08-19T02:48:55.450Z,11.15
2018-08-19T02:51:25.852Z,11.20
2018-08-19T02:53:57.017Z,10.50
2018-08-19T02:56:27.419Z,10.38
2018-08-19T02:58:58.209Z,11.10
2018-08-19T03:01:28.683Z,10.98
2018-08-19T03:04:00.235Z,10.82
2018-08-19T03:06:30.719Z,10.85
2018-08-19T03:09:01.159Z,10.70
2018-08-19T03:11:31.662Z,10.35
2018-08-19T03:14:02.413Z,10.70
2018-08-19T03:16:34.952Z,11.25
2018-08-19T03:19:05.397Z,11.08
2018-08-19T03:21:35.821Z,10.75
2018-08-19T03:24:06.393Z,9.80
2018-08-19T03:26:36.806Z,10.58
2018-08-19T03:29:14.158Z,10.25
2018-08-19T03:31:47.602Z,10.55
2018-08-19T03:34:18.218Z,9.95
2018-08-19T03:36:48.854Z,10.20
2018-08-19T03:39:19.219Z,10.25
2018-08-19T03:41:49.679Z,10.85
2018-08-19T03:44:21.569Z,10.80
2018-08-19T03:46:52.047Z,11.10
2018-08-19T03:49:24.144Z,10.80
2018-08-19T03:51:54.610Z,10.43
2018-08-19T03:54:25.172Z,10.53
2018-08-19T03:56:56.314Z,11.30
2018-08-19T03:59:26.718Z,10.65
2018-08-19T04:01:57.098Z,11.00
2018-08-19T04:04:27.654Z,10.43
2018-08-19T04:06:58.395Z,10.72
2018-08-19T04:09:28.802Z,11.28
2018-08-19T04:12:12.172Z,11.15
2018-08-19T04:14:42.568Z,11.18
2018-08-19T04:17:49.528Z,12.03
2018-08-19T04:20:19.978Z,11.40
2018-08-19T04:22:50.328Z,12.13
2018-08-19T04:25:25.840Z,12.23
2018-08-19T04:27:56.790Z,11.20
2018-08-19T04:30:27.265Z,11.80
2018-08-19T04:32:57.766Z,11.93
2018-08-19T04:35:27.701Z,11.63
2018-08-19T04:37:58.166Z,11.53
2018-08-19T04:40:29.042Z,12.50
2018-08-19T04:42:59.502Z,12.07
2018-08-19T04:45:29.648Z,12.00
2018-08-19T04:48:00.230Z,11.75
2018-08-19T04:50:30.152Z,10.98
2018-08-19T04:53:01.568Z,11.55
2018-08-19T04:55:32.135Z,11.20
2018-08-19T04:58:02.547Z,11.30
2018-08-19T05:00:32.950Z,10.93
2018-08-19T05:03:02.834Z,11.22
2018-08-19T05:05:33.312Z,11.60
2018-08-19T05:08:04.461Z,11.08
2018-08-19T05:10:35.109Z,11.22
2018-08-19T05:13:06.584Z,10.48
2018-08-19T05:15:37.381Z,10.38
2018-08-19T05:18:08.934Z,11.30
2018-08-19T05:20:39.598Z,9.53
2018-08-19T05:23:10.134Z,8.85
2018-08-19T05:25:45.639Z,8.85
2018-08-19T05:28:19.670Z,8.43
2018-08-19T05:30:50.356Z,8.18
2018-08-19T05:33:20.764Z,8.33
2018-08-19T05:35:51.806Z,8.05
2018-08-19T05:38:22.181Z,8.08
2018-08-19T05:40:57.684Z,7.55
2018-08-19T05:43:29.376Z,8.48
2018-08-19T05:46:01.010Z,7.90
2018-08-19T05:48:31.819Z,7.40
2018-08-19T05:51:02.239Z,7.83
2018-08-19T05:53:33.110Z,7.42
2018-08-19T05:56:03.529Z,7.80
2018-08-19T05:58:33.743Z,7.37
2018-08-19T06:01:04.301Z,8.18
2018-08-19T06:03:34.726Z,7.77
2018-08-19T06:06:05.991Z,7.80
2018-08-19T06:08:36.170Z,7.13
2018-08-19T06:11:06.359Z,7.47
2018-08-19T06:13:36.455Z,8.20
2018-08-19T06:16:07.009Z,7.53
2018-08-19T06:18:37.523Z,7.58
2018-08-19T06:21:09.425Z,8.05
2018-08-19T06:23:40.606Z,8.25
2018-08-19T06:26:11.626Z,7.97
2018-08-19T06:28:42.749Z,7.85
2018-08-19T06:31:14.171Z,7.90
2018-08-19T06:33:44.891Z,8.45
2018-08-19T06:36:16.187Z,8.53
2018-08-19T06:38:47.032Z,8.68
2018-08-19T06:41:17.575Z,8.70
2018-08-19T06:43:48.010Z,9.05
2018-08-19T06:46:18.385Z,8.55
2018-08-19T06:48:48.947Z,9.10
2018-08-19T06:51:19.336Z,8.88
2018-08-19T06:53:49.891Z,9.43
2018-08-19T06:56:20.637Z,9.50
2018-08-19T06:58:51.131Z,9.63
2018-08-19T07:01:21.473Z,9.45
2018-08-19T07:03:55.930Z,9.88
2018-08-19T07:06:26.507Z,10.58
2018-08-19T07:08:57.261Z,9.98
2018-08-19T07:11:27.721Z,9.48
2018-08-19T07:13:58.364Z,9.00
2018-08-19T07:16:28.955Z,8.78
2018-08-19T07:18:59.653Z,8.83
2018-08-19T07:21:30.037Z,9.33
2018-08-19T07:24:00.390Z,9.73
2018-08-19T07:26:30.791Z,10.48
2018-08-19T07:29:01.085Z,9.63
2018-08-19T07:31:31.747Z,9.53
2018-08-19T07:34:02.080Z,9.95
2018-08-19T07:36:32.483Z,9.83
2018-08-19T07:39:02.870Z,9.53
2018-08-19T07:41:33.258Z,10.13
2018-08-19T07:44:03.785Z,9.65
2018-08-19T07:46:34.417Z,9.13
2018-08-19T07:49:04.801Z,9.00
2018-08-19T07:51:35.922Z,9.70
2018-08-19T07:54:06.953Z,9.80
2018-08-19T07:56:37.740Z,10.65
2018-08-19T07:59:10.103Z,9.90
2018-08-19T08:01:41.074Z,10.90
2018-08-19T08:04:11.838Z,10.85
2018-08-19T08:06:42.547Z,10.82
2018-08-19T08:09:13.239Z,10.48
2018-08-19T08:11:43.699Z,11.12
2018-08-19T08:14:14.667Z,9.90
2018-08-19T08:16:50.219Z,10.95
2018-08-19T08:19:21.093Z,10.48
2018-08-19T08:21:51.991Z,9.83
2018-08-19T08:24:22.795Z,10.03
2018-08-19T08:26:56.220Z,9.88
2018-08-19T08:29:26.973Z,8.53
2018-08-19T08:31:58.578Z,10.38
2018-08-19T08:34:30.092Z,11.05
2018-08-19T08:37:05.690Z,10.53
2018-08-19T08:39:37.152Z,10.15
2018-08-19T08:42:08.191Z,11.08
2018-08-19T08:44:38.736Z,11.20
2018-08-19T08:47:11.538Z,11.35
2018-08-19T08:49:47.858Z,10.90
2018-08-19T08:52:25.383Z,10.45
2018-08-19T08:54:57.936Z,8.90
2018-08-19T08:57:28.812Z,9.68
2018-08-19T08:59:59.597Z,10.70
2018-08-19T09:02:30.050Z,10.10
2018-08-19T09:05:00.794Z,10.90
2018-08-19T09:07:31.324Z,9.80
2018-08-19T09:10:01.824Z,10.18
2018-08-19T09:12:52.803Z,9.93
2018-08-19T09:15:23.346Z,9.38
2018-08-19T09:17:54.271Z,9.30
2018-08-19T09:20:24.797Z,10.55
2018-08-19T09:22:55.248Z,9.38
2018-08-19T09:25:25.994Z,8.68
2018-08-19T09:27:56.480Z,9.10
2018-08-19T09:30:44.258Z,9.50
2018-08-19T09:33:15.200Z,9.05
2018-08-19T09:35:45.612Z,8.68
2018-08-19T09:38:20.682Z,8.93
2018-08-19T09:41:47.384Z,8.40
2018-08-19T09:44:17.788Z,9.00
2018-08-19T09:46:48.114Z,9.48
2018-08-19T09:49:18.553Z,8.90
2018-08-19T09:51:49.379Z,8.20
2018-08-19T09:54:25.966Z,8.23
2018-08-19T09:56:56.706Z,9.15
2018-08-19T09:59:27.140Z,8.03
2018-08-19T10:01:58.212Z,9.05
2018-08-19T10:04:28.870Z,8.23
2018-08-19T10:07:05.044Z,8.90
2018-08-19T10:09:36.264Z,8.75
2018-08-19T10:12:07.038Z,9.83
2018-08-19T10:14:37.750Z,9.03
2018-08-19T10:17:08.625Z,8.20
2018-08-19T10:19:39.206Z,9.23
2018-08-19T10:22:09.881Z,8.70
2018-08-19T10:24:40.239Z,9.50
2018-08-19T10:27:10.606Z,8.68
2018-08-19T10:29:41.034Z,8.80
2018-08-19T10:32:11.470Z,9.20
2018-08-19T10:34:41.933Z,7.90
2018-08-19T10:37:12.340Z,7.47
2018-08-19T10:39:42.728Z,11.70
2018-08-19T10:42:23.790Z,9.40
2018-08-19T10:44:54.197Z,8.93
2018-08-19T10:47:24.875Z,8.95
2018-08-19T10:49:59.730Z,9.13
2018-08-19T10:52:31.503Z,9.00
2018-08-19T10:55:02.605Z,9.03
2018-08-19T10:57:33.078Z,9.43
2018-08-19T11:00:03.502Z,9.13
2018-08-19T11:02:34.282Z,7.53
2018-08-19T11:05:04.695Z,7.03
2018-08-19T11:07:35.405Z,8.23
2018-08-19T11:10:20.810Z,7.62
2018-08-19T11:12:54.972Z,8.20
2018-08-19T11:15:49.903Z,9.63
2018-08-19T11:18:28.690Z,8.68
2018-08-19T11:21:03.606Z,8.68
2018-08-19T11:23:37.813Z,7.92
2018-08-19T11:26:09.541Z,8.38
2018-08-19T11:28:48.874Z,8.13
2018-08-19T11:31:25.770Z,6.92
2018-08-19T11:34:00.025Z,7.67
2018-08-19T11:36:37.091Z,7.53
2018-08-19T11:39:14.680Z,7.40
2018-08-19T11:41:45.107Z,7.10
2018-08-19T11:44:17.044Z,7.47
2018-08-19T11:46:47.532Z,6.97
2018-08-19T11:49:19.619Z,7.33
2018-08-19T11:51:57.489Z,7.33
2018-08-19T11:54:28.564Z,7.45
2018-08-19T11:57:07.982Z,7.20
2018-08-19T11:59:40.707Z,7.00
2018-08-19T12:02:13.629Z,7.45
2018-08-19T12:04:44.578Z,6.97
2018-08-19T12:07:15.079Z,7.00
2018-08-19T12:10:00.161Z,7.10
2018-08-19T12:12:46.119Z,8.50
2018-08-19T12:15:16.353Z,7.03
2018-08-19T12:17:46.509Z,7.57
2018-08-19T12:20:23.450Z,6.97
2018-08-19T12:22:54.150Z,6.85
2018-08-19T12:25:24.888Z,6.75
2018-08-19T12:27:55.378Z,6.60
2018-08-19T12:30:25.932Z,7.10
2018-08-19T12:33:11.667Z,7.35
2018-08-19T12:35:41.891Z,7.27
2018-08-19T12:38:13.084Z,7.53
2018-08-19T12:40:46.244Z,6.93
2018-08-19T12:43:16.763Z,6.30
2018-08-19T12:45:47.182Z,6.93
2018-08-19T12:48:17.851Z,6.95
2018-08-19T12:50:52.972Z,6.53
2018-08-19T12:53:23.096Z,7.03
2018-08-19T12:55:53.564Z,6.55
2018-08-19T12:58:23.836Z,6.80
2018-08-19T13:00:54.016Z,7.17
2018-08-19T13:03:28.127Z,6.70
2018-08-19T13:06:04.455Z,6.40
2018-08-19T13:08:35.162Z,6.97
2018-08-19T13:11:07.428Z,6.43
2018-08-19T13:13:37.603Z,6.30
2018-08-19T13:16:08.389Z,6.33
2018-08-19T13:18:41.297Z,6.40
2018-08-19T13:21:16.133Z,6.00
2018-08-19T13:23:46.409Z,6.53
2018-08-19T13:26:16.534Z,7.20
2018-08-19T13:28:52.451Z,6.95
2018-08-19T13:31:29.717Z,6.67
2018-08-19T13:34:00.844Z,6.50
2018-08-19T13:36:31.006Z,6.60
2018-08-19T13:39:01.426Z,6.67
2018-08-19T13:41:31.889Z,6.28
2018-08-19T13:44:02.345Z,7.10
2018-08-19T13:46:32.851Z,6.60
2018-08-19T13:49:03.198Z,6.80
2018-08-19T13:51:33.394Z,7.20
2018-08-19T13:54:04.308Z,7.22
2018-08-19T13:56:34.385Z,6.77
2018-08-19T13:59:04.582Z,6.40
2018-08-19T14:01:34.980Z,5.80
2018-08-19T14:04:05.188Z,6.60
2018-08-19T14:06:35.280Z,6.90
2018-08-19T14:09:06.750Z,6.73
2018-08-19T14:11:36.842Z,6.67
2018-08-19T14:14:07.341Z,6.33
2018-08-19T14:16:37.458Z,6.10
2018-08-19T14:19:07.805Z,6.17
2018-08-19T14:21:38.293Z,6.53
2018-08-19T14:24:08.329Z,6.37
2018-08-19T14:26:38.396Z,5.80
2018-08-19T14:29:08.754Z,6.10
2018-08-19T14:31:38.953Z,5.90
2018-08-19T14:34:09.114Z,5.53
2018-08-19T14:36:39.300Z,6.03
2018-08-19T14:39:09.371Z,6.07
2018-08-19T14:41:39.493Z,5.70
2018-08-19T14:44:09.582Z,5.70
2018-08-19T14:46:40.021Z,5.83
2018-08-19T14:49:10.357Z,5.93
2018-08-19T14:51:58.803Z,5.60
2018-08-19T14:54:29.503Z,5.80
2018-08-19T14:57:00.738Z,5.70
2018-08-19T14:59:31.261Z,6.40
2018-08-19T15:02:01.540Z,5.63
2018-08-19T15:04:31.894Z,5.17
2018-08-19T15:07:02.096Z,5.27
2018-08-19T15:09:35.312Z,5.67
2018-08-19T15:12:15.084Z,5.63
2018-08-19T15:14:45.398Z,4.93
2018-08-19T15:17:15.623Z,5.33
2018-08-19T15:19:50.139Z,5.00
2018-08-19T15:22:20.692Z,5.33
2018-08-19T15:24:51.314Z,4.70
2018-08-19T15:27:21.866Z,5.20
2018-08-19T15:29:54.262Z,4.77
2018-08-19T15:32:25.547Z,4.73
2018-08-19T15:34:56.182Z,4.33
2018-08-19T15:37:26.309Z,4.73
2018-08-19T15:39:56.475Z,4.23
2018-08-19T15:42:26.708Z,4.73
2018-08-19T15:44:56.849Z,4.53
2018-08-19T15:47:26.915Z,4.77
2018-08-19T15:50:13.927Z,5.00
2018-08-19T15:52:44.839Z,4.40
2018-08-19T15:55:15.188Z,4.60
2018-08-19T15:57:45.676Z,4.80
2018-08-19T16:00:15.804Z,4.53
2018-08-19T16:02:45.891Z,4.80
2018-08-19T16:05:17.068Z,5.00
2018-08-19T16:07:47.597Z,5.33
2018-08-19T16:10:17.932Z,5.00
2018-08-19T16:12:51.204Z,4.83
2018-08-19T16:15:25.322Z,4.60
2018-08-19T16:17:56.975Z,4.90
2018-08-19T16:20:27.195Z,4.67
2018-08-19T16:22:57.396Z,4.40
2018-08-19T16:25:27.552Z,4.73
2018-08-19T16:27:58.289Z,4.83
2018-08-19T16:30:28.418Z,4.83
2018-08-19T16:32:58.513Z,4.53
2018-08-19T16:35:28.722Z,5.20
2018-08-19T16:37:58.858Z,5.00
2018-08-19T16:40:30.153Z,5.30
2018-08-19T16:43:00.211Z,4.93
2018-08-19T16:45:30.383Z,4.93
2018-08-19T16:48:00.540Z,6.53
2018-08-19T16:50:31.237Z,5.63
2018-08-19T16:53:01.434Z,5.10
2018-08-19T16:55:31.546Z,4.77
2018-08-19T16:58:01.693Z,4.80
2018-08-19T17:00:31.824Z,5.00
2018-08-19T17:03:06.543Z,4.60
2018-08-19T17:05:36.917Z,5.13
2018-08-19T17:08:07.831Z,4.67
2018-08-19T17:10:37.974Z,4.83
2018-08-19T17:13:08.173Z,4.93
2018-08-19T17:15:38.425Z,5.30
2018-08-19T17:18:09.150Z,5.10
2018-08-19T17:24:16.167Z,5.00
2018-08-19T17:26:47.032Z,5.33
2018-08-19T17:29:19.351Z,5.30
2018-08-19T17:31:49.826Z,5.57
2018-08-19T17:34:20.657Z,5.23
2018-08-19T17:40:29.587Z,5.70
2018-08-19T17:43:00.563Z,5.78
2018-08-19T17:45:31.013Z,5.62
2018-08-19T17:48:01.615Z,5.47
2018-08-19T17:50:32.421Z,5.17
2018-08-19T17:53:03.325Z,5.60
2018-08-19T17:55:33.825Z,5.87
2018-08-19T17:58:04.465Z,5.40
2018-08-19T18:00:34.965Z,5.47
2018-08-19T18:06:41.988Z,5.33
2018-08-19T18:09:16.580Z,5.47
2018-08-19T18:11:53.649Z,5.78
2018-08-19T18:14:23.993Z,5.60
2018-08-19T18:16:54.550Z,5.33
2018-08-19T18:19:24.955Z,6.22
2018-08-19T18:21:55.412Z,5.65
2018-08-19T18:24:25.819Z,5.78
2018-08-19T18:26:56.552Z,6.33
2018-08-19T18:29:32.403Z,6.33
2018-08-19T18:32:02.799Z,6.70
2018-08-19T18:34:34.163Z,7.03
2018-08-19T18:37:04.717Z,7.22
2018-08-19T18:39:35.189Z,6.40
2018-08-19T18:42:05.775Z,6.20
2018-08-19T18:44:36.622Z,5.58
2018-08-19T18:47:08.060Z,6.20
2018-08-19T18:49:38.395Z,6.17
2018-08-19T18:52:14.033Z,6.15
2018-08-19T18:54:44.513Z,5.87
2018-08-19T18:57:14.876Z,5.90
2018-08-19T18:59:45.240Z,5.45
2018-08-19T19:02:15.627Z,6.00
2018-08-19T19:04:46.261Z,5.75
2018-08-19T19:07:16.781Z,6.00
2018-08-19T19:09:51.019Z,6.22
2018-08-19T19:12:23.627Z,6.17
2018-08-19T19:14:54.377Z,6.83
2018-08-19T19:17:24.828Z,6.03
2018-08-19T19:19:55.248Z,6.40
2018-08-19T19:22:26.026Z,6.65
2018-08-19T19:24:56.477Z,5.70
2018-08-19T19:27:26.949Z,6.67
2018-08-19T19:30:02.765Z,6.65
2018-08-19T19:32:33.187Z,6.67
2018-08-19T19:35:10.022Z,6.78
2018-08-19T19:37:41.083Z,6.05
2018-08-19T19:43:47.767Z,6.72
2018-08-19T19:46:18.545Z,6.17
2018-08-19T19:48:49.229Z,6.58
2018-08-19T19:51:19.673Z,6.25
2018-08-19T19:53:50.287Z,6.42
2018-08-19T19:56:20.937Z,6.03
2018-08-19T19:58:51.345Z,6.50
2018-08-19T20:01:21.752Z,6.90
2018-08-19T20:03:54.364Z,6.60
2018-08-19T20:06:25.771Z,6.30
2018-08-19T20:09:00.028Z,6.30
2018-08-19T20:11:31.399Z,6.33
2018-08-19T20:14:03.156Z,6.65
2018-08-19T20:16:33.585Z,6.62
2018-08-19T20:19:05.258Z,5.95
2018-08-19T20:21:37.266Z,6.12
2018-08-19T20:24:07.824Z,6.30
2018-08-19T20:26:38.332Z,6.62
2018-08-19T20:29:08.930Z,6.80
2018-08-19T20:31:39.700Z,5.90
2018-08-19T20:34:10.240Z,5.95
2018-08-19T20:36:40.611Z,6.37
2018-08-19T20:39:11.360Z,6.17
2018-08-19T20:41:41.732Z,6.20
2018-08-19T20:44:12.269Z,6.03
2018-08-19T20:46:48.395Z,6.55
2018-08-19T20:49:18.774Z,6.47
2018-08-19T20:51:49.214Z,6.25
2018-08-19T20:54:19.613Z,6.10
2018-08-19T20:56:50.127Z,6.30
2018-08-19T20:59:37.895Z,6.25
2018-08-19T21:02:09.517Z,6.40
2018-08-19T21:04:40.724Z,6.42
2018-08-19T21:07:11.158Z,6.20
2018-08-19T21:09:42.072Z,6.90
2018-08-19T21:12:12.724Z,6.62
2018-08-19T21:14:43.213Z,6.58
2018-08-19T21:17:13.816Z,6.33
2018-08-19T21:19:45.262Z,6.47
2018-08-19T21:22:15.978Z,6.83
2018-08-19T21:24:46.408Z,6.53
2018-08-19T21:27:16.904Z,6.65
2018-08-19T21:29:47.428Z,6.70
2018-08-19T21:32:17.954Z,6.10
2018-08-19T21:34:49.058Z,7.40
2018-08-19T21:37:27.508Z,6.87
2018-08-19T21:39:58.044Z,7.22
2018-08-19T21:42:28.486Z,6.40
2018-08-19T21:44:58.935Z,6.37
2018-08-19T21:47:29.770Z,6.35
2018-08-19T21:50:00.808Z,7.00
2018-08-19T21:52:31.363Z,7.72
2018-08-19T21:55:02.302Z,6.95
2018-08-19T21:57:32.656Z,6.80
2018-08-19T22:00:03.174Z,7.37
2018-08-19T22:03:39.653Z,7.28
2018-08-19T22:06:48.123Z,7.03
2018-08-19T22:09:33.560Z,6.35
2018-08-19T22:12:04.592Z,7.37
2018-08-19T22:14:35.084Z,6.75
2018-08-19T22:17:09.708Z,6.90
2018-08-19T22:19:41.059Z,6.65
2018-08-19T22:22:11.682Z,6.62
2018-08-19T22:24:42.203Z,6.20
2018-08-19T22:27:17.348Z,7.25
2018-08-19T22:29:49.374Z,6.90
2018-08-19T22:32:21.588Z,6.60
2018-08-19T22:34:52.062Z,6.72
2018-08-19T22:37:23.302Z,6.25
2018-08-19T22:39:53.868Z,6.75
2018-08-19T22:42:24.508Z,6.80
2018-08-19T22:44:55.684Z,6.40
2018-08-19T22:47:26.150Z,6.87
2018-08-19T22:49:58.468Z,6.50
2018-08-19T22:52:29.123Z,6.22
2018-08-19T22:55:00.177Z,7.05
2018-08-19T22:57:30.634Z,6.78
2018-08-19T23:00:01.445Z,7.00
2018-08-19T23:02:31.916Z,7.00
2018-08-19T23:05:02.444Z,7.05
2018-08-19T23:07:32.980Z,6.28
2018-08-19T23:10:03.730Z,7.20
2018-08-19T23:12:34.332Z,6.90
2018-08-19T23:15:21.176Z,7.17
2018-08-19T23:17:51.640Z,7.05
2018-08-19T23:20:22.180Z,7.03
2018-08-19T23:22:52.836Z,7.20
2018-08-19T23:25:23.294Z,7.80
2018-08-19T23:27:54.400Z,7.28
2018-08-19T23:30:25.706Z,6.95
2018-08-19T23:32:56.125Z,7.40
2018-08-19T23:35:27.378Z,7.85
2018-08-19T23:37:57.906Z,7.35
2018-08-19T23:40:28.498Z,8.13
2018-08-19T23:42:58.949Z,7.53
2018-08-19T23:45:29.564Z,7.55
2018-08-19T23:47:59.997Z,7.55
2018-08-19T23:50:30.786Z,6.90
2018-08-19T23:53:02.057Z,7.00
2018-08-19T23:55:35.209Z,7.55
2018-08-19T23:58:06.001Z,6.72
